Wall Blake, Anguilla

9:56 AM AST on August 01, 2014 (GMT -0400)
Wallblake (TQPF) Elev 95 ft | 18.20 °N, 63.06 °W | Change Station

Current weather conditions updated 56 minutes ago

Mostly Cloudy
Mostly Cloudy
84 °F
Feels Like 91 °F
N
17
Wind Variable Wind from East

Today is forecast to be Cooler than yesterday. Times of sun and clouds.

Today
High -- | Low -- °F
--% Chance of Precip.
Yesterday
High -- | Low -- °F
Precip. -- in
5:50 AM 6:46 PM
Waxing Crescent, 26% visible
Pressure 30.01 in
Visibility 6.2 miles
Clouds Mostly Cloudy 2000 ft
Heat Index 91 °F
Dew Point 73 °F
Humidity 70%
Rainfall 0.00 in
Snow Depth Not available.
UV 4 out of 12
Pollen Not available.
Air Quality Not available.
Flu Activity Not available.
METAR TQPF 011300Z 10015KT 9999 BKN020 29/23 Q1016

More Conditions Fewer Conditions

Pressure 30.01 in
Visibility 6.2 miles
Clouds Mostly Cloudy 2000 ft
Heat Index 91 °F
Dew Point 73 °F
Humidity 70%
Rainfall 0.00 in
Snow Depth Not available.
UV 4 out of 12
Pollen Not available.
Air Quality Not available.
Flu Activity Not available.
METAR TQPF 011300Z 10015KT 9999 BKN020 29/23 Q1016

More Conditions Fewer Conditions

10-Day Weather Forecast

Almanac

Astronomy

Aug. 01, 2014 Rise Set
Actual Time 5:50 AM AST 6:46 PM AST
Civil Twilight 5:27 AM AST 7:09 PM AST
Nautical Twilight 4:59 AM AST 7:36 PM AST
Astronomical Twilight 4:31 AM AST 8:04 PM AST
Moon 10:18 AM AST 10:23 PM AST
Length of Visible Light 13h 42m
Length of Day
12h 56m
Tomorrow will be 0m 46s shorter.
Waxing Crescent, 26% of the Moon is Illuminated
Today
Waxing Crescent
Aug 3
First Quarter
Aug 10
Full
Aug 17
Last Quarter
Aug 25
New

Yesterday's Extremes

Country Highs Country Lows

Community

WunderPhotos

Upload Photos

1,739,557 photos uploaded!

Nearby

Snow Depth

Not available.

Earthquake Activity

City Distance Mag. Time & Date
No recent earthquake activity has been reported nearby.
Minimum magnitude displayed is 2.5.

Coastal Water Temperatures

Place Temperature
No Stations Reporting

Nearby Weather Stations

Station Location Temp. Heat Index Dew Point Humidity Wind Precip. Elev Updated Type
West End, Anguilla, Anguilla 85.9 °F 95 °F 75 °F 70% East  at  11.0 mph 0.00 in / hr 46 ft 9:51 AM AST Normal
Concordia, Saint-Martin 87.1 °F 97 °F 76 °F 69% SE  at  4.3 mph 0.00 in / hr 85 ft 9:56 AM AST Rapid Fire
Cole Bay, St.Maarten, Cole Bay 83.8 °F 91 °F 75 °F 74% SSW  at  4.0 mph 0.00 in / hr 171 ft 9:55 AM AST Normal

Show More Stations Show Fewer Stations